Beauregard Regional Airport
KDRI : now visible

Airfield :











YOU CAN JOIN US ON...

 
LOGIN :

Register | Disclaimer

   EN    FR    IT 

 









Legend :    VFR   Marginal VFR   IFR   Intensive IFR   Very Intensive IFR
Visi :
Ceiling :
>= 8 km
>= 3000ft
5 to 8 km
1000 to 3000 ft
1500m to 5 km
500 to 1000 ft
800 to 1500m
200 to 500 ft
< 800m
< 200 ft
Symbols :   Thunderstorms  Fog  Heavy snow  Heavy precipitations  Wind > 20 kt






- Airport Elevation : 202 ft


KDRI - Beauregard Regional

CURRENT METAR :
  • 070955Z AUTO 00000KT 10SM CLR 14/14 A3016 RMK AO2 T01370135

EXPIRED METARs :
  • 070935Z AUTO 00000KT 10SM CLR 14/14 A3016 RMK AO2 T01400136
  • 070915Z AUTO 00000KT 10SM CLR 14/14 A3016 RMK AO2 T01390135
  • 070855Z AUTO 00000KT 10SM CLR 14/13 A3016 RMK AO2 T01370133
  • 070835Z AUTO 00000KT 10SM CLR 14/14 A3016 RMK AO2 T01400135
  • 070815Z AUTO 00000KT 10SM CLR 14/14 A3015 RMK AO2 T01410135
  • 070755Z AUTO 00000KT 10SM CLR 14/14 A3015 RMK AO2 T01410135
  • 070735Z AUTO 00000KT 10SM CLR 15/14 A3016 RMK AO2 T01490139
  • 070715Z AUTO 00000KT 10SM CLR 15/14 A3016 RMK AO2 T01460141

TAF N/A
KZHU FIR / North America



MET'MAP, your aeronautical weather chart ! - Copyright ORBIFLY December 2007 - Disclaimer

ORBIFLY MET'MAP TEAM :

Programming & Development : Alexandra Zaïnal
Concept & original design : Baudouin d'Aumeries
Assistance for programming : Marc-Olivier Méhu
Technical & hardware support : Manuel Goepfert

Contact : metmap@orbifly.com




SOURCES & CREDITS :

   NOAA       Earth
Advisory